Time;durP1;ratioP1;P1;durP2;ratioP2;P2;SDS_P1;SDS_P2;PMS_P1;PMS_P2;Temp;Humidity;BMP_temperature;BMP_pressure;BME280_temperature;BME280_humidity;BME280_pressure;Samples;Min_cycle;Max_cycle;Signal;HPM_P1;HPM_P2
2022/07/23 00:02:20;;;;;;;6.78;3.60;;;;;;;20.24;59.92;100577.86;1738727;81;21406;-48
2022/07/23 00:04:47;;;;;;;7.22;3.15;;;;;;;20.16;60.27;100588.10;1720611;82;21078;-47
2022/07/23 00:07:14;;;;;;;5.33;3.58;;;;;;;20.00;60.12;100581.56;1717765;82;21150;-48
2022/07/23 00:09:40;;;;;;;6.25;3.52;;;;;;;19.88;60.33;100582.48;1720131;82;21083;-47
2022/07/23 00:12:08;;;;;;;5.47;3.45;;;;;;;19.83;60.16;100592.36;1724216;82;21112;-47
2022/07/23 00:14:34;;;;;;;5.35;3.52;;;;;;;19.81;59.96;100587.71;1723214;82;22469;-47
2022/07/23 00:17:02;;;;;;;5.15;3.50;;;;;;;19.78;59.76;100589.91;1721502;82;21049;-47
2022/07/23 00:19:29;;;;;;;6.58;4.03;;;;;;;19.76;59.58;100585.26;1720602;82;21647;-48
2022/07/23 00:21:56;;;;;;;7.70;4.10;;;;;;;19.74;59.49;100590.74;1721664;82;21442;-47
2022/07/23 00:24:23;;;;;;;6.17;3.90;;;;;;;19.74;59.40;100593.92;1721950;82;21008;-47
2022/07/23 00:26:49;;;;;;;9.58;3.60;;;;;;;19.71;59.29;100595.61;1715082;82;21614;-48
2022/07/23 00:29:16;;;;;;;7.72;3.52;;;;;;;19.67;59.14;100595.96;1721788;82;21434;-47
2022/07/23 00:31:42;;;;;;;6.47;3.37;;;;;;;19.66;59.15;100595.63;1713716;82;22057;-51
2022/07/23 00:34:09;;;;;;;5.83;3.67;;;;;;;19.66;59.27;100591.62;1732830;82;21525;-48
2022/07/23 00:36:36;;;;;;;4.92;3.20;;;;;;;19.75;59.12;100586.26;1722687;81;21078;-47
2022/07/23 00:39:03;;;;;;;7.12;3.62;;;;;;;19.81;59.07;100582.38;1720443;82;21070;-47
2022/07/23 00:41:29;;;;;;;5.25;3.37;;;;;;;19.86;59.03;100582.66;1725570;82;21646;-48
2022/07/23 00:43:56;;;;;;;7.15;3.62;;;;;;;19.89;59.14;100580.64;1732820;81;21250;-47
2022/07/23 00:46:23;;;;;;;5.40;3.80;;;;;;;19.92;59.23;100585.63;1759662;79;21100;-47
2022/07/23 00:48:50;;;;;;;13.58;4.03;;;;;;;19.94;59.39;100592.46;1757201;79;21090;-47
2022/07/23 00:51:16;;;;;;;5.40;3.40;;;;;;;19.91;59.67;100590.66;1776415;79;21094;-47
2022/07/23 00:53:43;;;;;;;9.78;4.17;;;;;;;19.85;59.78;100587.70;1760233;79;21109;-48
2022/07/23 00:56:11;;;;;;;7.22;3.90;;;;;;;19.81;59.85;100589.05;1765439;79;21137;-47
2022/07/23 00:58:38;;;;;;;6.05;4.17;;;;;;;19.74;60.04;100592.59;1765509;79;21145;-47
2022/07/23 01:01:04;;;;;;;5.47;3.77;;;;;;;19.67;60.42;100593.80;1762762;79;21052;-47
2022/07/23 01:03:31;;;;;;;6.00;3.47;;;;;;;19.67;60.78;100597.81;1744992;79;21081;-47
2022/07/23 01:05:58;;;;;;;8.15;3.67;;;;;;;19.73;60.77;100602.94;1766970;79;21071;-47
2022/07/23 01:08:25;;;;;;;6.90;4.17;;;;;;;19.72;60.42;100599.44;1764938;79;21061;-47
2022/07/23 01:10:52;;;;;;;6.42;4.22;;;;;;;19.73;60.47;100598.92;1729054;79;21058;-48
2022/07/23 01:13:19;;;;;;;5.60;3.90;;;;;;;19.67;60.63;100598.63;1756642;79;21050;-48
2022/07/23 01:15:46;;;;;;;7.75;4.50;;;;;;;19.58;60.91;100606.86;1771894;79;21061;-48
2022/07/23 01:18:13;;;;;;;7.25;4.00;;;;;;;19.53;61.15;100607.89;1762755;80;21076;-47
2022/07/23 01:20:40;;;;;;;10.50;4.17;;;;;;;19.47;61.16;100609.44;1744859;80;21300;-48
2022/07/23 01:23:09;;;;;;;5.53;3.70;;;;;;;19.43;61.06;100604.96;1749472;81;21048;-48
2022/07/23 01:25:37;;;;;;;7.42;4.15;;;;;;;19.37;60.99;100602.98;1767698;80;21089;-47
2022/07/23 01:28:05;;;;;;;7.47;4.37;;;;;;;19.29;61.15;100611.03;1746505;80;21083;-47
2022/07/23 01:30:33;;;;;;;5.92;3.62;;;;;;;19.28;61.23;100606.69;1758597;80;21576;-48
2022/07/23 01:33:03;;;;;;;8.08;4.22;;;;;;;19.34;61.13;100615.33;1765883;80;21234;-47
2022/07/23 01:35:30;;;;;;;6.62;4.22;;;;;;;19.42;60.91;100608.62;1785007;78;21051;-47
2022/07/23 01:37:58;;;;;;;7.33;4.25;;;;;;;19.48;60.79;100609.75;1752746;80;21087;-48
2022/07/23 01:40:25;;;;;;;6.75;4.10;;;;;;;19.52;60.59;100611.56;1760798;80;21006;-48
2022/07/23 01:42:52;;;;;;;7.62;4.35;;;;;;;19.48;60.57;100617.27;1761543;80;21072;-48
2022/07/23 01:45:20;;;;;;;10.23;4.22;;;;;;;19.42;60.67;100614.48;1759189;80;21115;-48
2022/07/23 01:47:48;;;;;;;8.08;4.60;;;;;;;19.32;60.91;100617.35;1750148;81;22294;-47
2022/07/23 01:50:15;;;;;;;6.97;4.30;;;;;;;19.25;61.10;100621.73;1746177;81;21087;-47
2022/07/23 01:52:58;;;;;;;5.72;4.00;;;;;;;19.19;61.21;100617.91;1743935;81;21070;-47
2022/07/23 01:55:25;;;;;;;6.30;4.17;;;;;;;19.14;61.39;100626.11;1749617;81;21181;-47
2022/07/23 01:57:52;;;;;;;9.63;4.40;;;;;;;19.13;61.53;100627.92;1749536;81;22208;-47
2022/07/23 02:00:20;;;;;;;7.92;4.37;;;;;;;19.21;61.57;100624.41;1749457;81;21040;-47
2022/07/23 02:02:48;;;;;;;6.40;4.20;;;;;;;19.28;61.49;100621.36;1745399;81;21107;-47
2022/07/23 02:05:14;;;;;;;6.70;4.00;;;;;;;19.31;61.46;100622.34;1752750;80;21085;-47
2022/07/23 02:07:42;;;;;;;6.83;4.67;;;;;;;19.36;61.41;100627.99;1749483;80;21070;-47
2022/07/23 02:10:09;;;;;;;7.40;4.50;;;;;;;19.40;61.35;100625.80;1737237;80;21145;-47
2022/07/23 02:12:38;;;;;;;11.53;5.35;;;;;;;19.42;61.18;100626.48;1743115;79;21078;-47
2022/07/23 02:15:07;;;;;;;5.67;4.42;;;;;;;19.39;62.01;100630.31;1741795;81;21018;-47
2022/07/23 02:17:34;;;;;;;7.58;4.12;;;;;;;19.37;62.54;100632.34;1736979;81;21030;-46
2022/07/23 02:20:01;;;;;;;6.70;4.12;;;;;;;19.39;62.58;100636.98;1743441;81;21125;-47
2022/07/23 02:22:28;;;;;;;6.60;4.22;;;;;;;19.38;62.52;100636.64;1747654;81;21212;-47
2022/07/23 02:24:55;;;;;;;9.70;4.42;;;;;;;19.39;62.01;100636.16;1749528;79;21042;-47
2022/07/23 02:27:23;;;;;;;7.22;4.42;;;;;;;19.41;61.63;100626.97;1746107;79;21043;-47
2022/07/23 02:29:50;;;;;;;7.55;4.40;;;;;;;19.42;61.34;100629.15;1763849;79;21091;-47
2022/07/23 02:32:16;;;;;;;7.47;4.53;;;;;;;19.44;61.23;100623.13;1758850;79;21140;-47
2022/07/23 02:34:45;;;;;;;7.25;4.20;;;;;;;19.44;61.19;100632.47;1761190;79;21094;-47
2022/07/23 02:37:12;;;;;;;6.40;4.08;;;;;;;19.41;61.56;100628.30;1752871;79;21002;-47
2022/07/23 02:39:39;;;;;;;5.87;3.72;;;;;;;19.39;61.95;100630.31;1751886;79;21141;-47
2022/07/23 02:42:07;;;;;;;6.10;4.37;;;;;;;19.39;62.17;100631.65;1756690;79;21108;-46
2022/07/23 02:44:34;;;;;;;5.87;4.03;;;;;;;19.39;62.31;100638.83;1750366;79;21022;-47
2022/07/23 02:47:01;;;;;;;7.42;4.75;;;;;;;19.32;62.59;100630.70;1756473;81;21158;-47
2022/07/23 02:49:28;;;;;;;5.67;3.77;;;;;;;19.32;62.79;100633.36;1756677;81;21058;-47
2022/07/23 02:51:55;;;;;;;6.42;4.12;;;;;;;19.36;62.87;100637.84;1757908;81;21082;-47
2022/07/23 02:54:21;;;;;;;8.30;4.25;;;;;;;19.36;62.98;100633.84;1739085;81;21078;-47
2022/07/23 02:56:50;;;;;;;8.05;4.75;;;;;;;19.32;63.18;100636.03;1751517;79;21617;-47
2022/07/23 02:59:17;;;;;;;5.97;4.42;;;;;;;19.34;63.24;100631.34;1749814;79;21141;-48
2022/07/23 03:01:44;;;;;;;8.13;4.47;;;;;;;19.39;63.08;100632.98;1752368;80;21114;-48
2022/07/23 03:04:12;;;;;;;6.97;4.10;;;;;;;19.42;63.21;100635.82;1746779;80;21066;-47
2022/07/23 03:06:38;;;;;;;6.58;4.55;;;;;;;19.41;63.50;100648.31;1754246;81;21074;-47
2022/07/23 03:09:05;;;;;;;6.50;4.33;;;;;;;19.40;63.78;100644.48;1765699;79;21064;-47
2022/07/23 03:11:32;;;;;;;7.05;5.15;;;;;;;19.38;64.01;100647.83;1748598;79;21149;-47
2022/07/23 03:14:00;;;;;;;6.80;4.35;;;;;;;19.37;64.28;100653.68;1766820;79;21022;-47
2022/07/23 03:16:27;;;;;;;6.75;4.53;;;;;;;19.32;64.24;100653.38;1755967;79;21066;-47
2022/07/23 03:18:54;;;;;;;7.03;4.50;;;;;;;19.26;64.21;100652.72;1762840;79;21120;-47
2022/07/23 03:21:21;;;;;;;6.55;3.85;;;;;;;19.27;64.32;100657.06;1767921;79;21066;-47
2022/07/23 03:23:48;;;;;;;7.58;4.58;;;;;;;19.27;64.50;100648.55;1770319;79;21238;-47
2022/07/23 03:26:15;;;;;;;7.28;4.60;;;;;;;19.31;64.60;100653.03;1762034;80;21123;-47
2022/07/23 03:28:41;;;;;;;6.17;4.70;;;;;;;19.34;64.66;100654.02;1753317;80;21124;-47
2022/07/23 03:31:09;;;;;;;6.75;4.42;;;;;;;19.37;64.72;100653.68;1748953;80;21054;-47
2022/07/23 03:33:37;;;;;;;7.50;4.45;;;;;;;19.45;64.93;100657.65;1747645;80;21097;-47
2022/07/23 03:36:05;;;;;;;6.65;3.72;;;;;;;19.58;65.01;100661.58;1741288;81;21330;-48
2022/07/23 03:38:33;;;;;;;7.12;4.47;;;;;;;19.73;64.90;100662.48;1740338;81;21134;-49
2022/07/23 03:41:01;;;;;;;6.90;4.05;;;;;;;19.90;64.63;100663.76;1750508;81;21524;-48
2022/07/23 03:43:27;;;;;;;6.47;4.67;;;;;;;20.04;64.40;100664.34;1733989;81;21033;-49
2022/07/23 03:45:54;;;;;;;8.10;5.03;;;;;;;20.13;64.32;100664.59;1718496;81;21135;-47
2022/07/23 03:48:20;;;;;;;6.85;4.45;;;;;;;20.20;64.33;100668.72;1743204;81;21142;-47
2022/07/23 03:50:47;;;;;;;8.83;4.95;;;;;;;20.25;63.78;100673.53;1709379;82;21122;-47
2022/07/23 03:53:13;;;;;;;6.55;5.00;;;;;;;20.30;63.32;100669.30;1714762;83;21065;-48
2022/07/23 03:55:40;;;;;;;7.10;4.40;;;;;;;20.36;63.20;100669.10;1722360;82;21066;-47
2022/07/23 03:58:07;;;;;;;9.50;4.35;;;;;;;20.43;62.76;100668.70;1742132;81;21074;-47
2022/07/23 04:00:33;;;;;;;7.20;4.60;;;;;;;20.47;62.73;100668.65;1739959;81;22236;-48
2022/07/23 04:03:01;;;;;;;6.37;4.95;;;;;;;20.49;62.66;100672.48;1738842;81;21134;-47
2022/07/23 04:05:28;;;;;;;7.67;4.97;;;;;;;20.43;62.65;100665.20;1740997;81;21027;-47
2022/07/23 04:07:57;;;;;;;7.03;4.78;;;;;;;20.37;62.88;100662.73;1734727;81;21170;-47
2022/07/23 04:10:24;;;;;;;7.83;4.90;;;;;;;20.38;62.95;100662.55;1722748;81;21073;-47
2022/07/23 04:12:51;;;;;;;6.17;4.42;;;;;;;20.44;63.18;100664.99;1715395;83;21145;-48
2022/07/23 04:15:17;;;;;;;6.35;4.70;;;;;;;20.53;63.17;100663.10;1721272;83;21012;-48
2022/07/23 04:17:44;;;;;;;8.28;4.70;;;;;;;20.62;63.22;100664.67;1723168;82;21076;-47
2022/07/23 04:20:11;;;;;;;6.53;4.62;;;;;;;20.70;63.23;100669.16;1717550;81;21638;-48
2022/07/23 04:22:40;;;;;;;7.30;4.70;;;;;;;20.74;63.26;100665.91;1721547;82;21142;-47
2022/07/23 04:25:08;;;;;;;7.40;4.62;;;;;;;20.81;63.00;100662.52;1724198;81;22013;-47
2022/07/23 04:27:35;;;;;;;7.05;4.50;;;;;;;20.84;63.08;100670.17;1730407;81;21605;-48
2022/07/23 04:30:03;;;;;;;8.93;4.83;;;;;;;20.88;63.08;100661.61;1708849;83;21074;-48
2022/07/23 04:32:30;;;;;;;7.03;4.62;;;;;;;20.95;62.92;100663.86;1715211;83;21082;-47
2022/07/23 04:34:57;;;;;;;9.30;5.22;;;;;;;21.02;62.76;100667.16;1723670;82;21895;-48
2022/07/23 04:37:23;;;;;;;6.92;4.83;;;;;;;21.02;62.92;100665.81;1728407;82;21764;-47
2022/07/23 04:39:50;;;;;;;6.22;4.75;;;;;;;21.00;63.15;100663.80;1722067;82;21560;-47
2022/07/23 04:42:17;;;;;;;8.30;4.87;;;;;;;21.00;63.55;100654.44;1774632;80;21539;-47
2022/07/23 04:44:43;;;;;;;6.12;4.53;;;;;;;21.08;63.80;100657.03;1778975;79;21497;-47
2022/07/23 04:47:10;;;;;;;7.72;4.37;;;;;;;21.17;63.69;100654.59;1816391;77;21034;-47
2022/07/23 04:49:38;;;;;;;6.42;5.15;;;;;;;21.24;63.55;100657.36;1811285;77;21514;-47
2022/07/23 04:52:05;;;;;;;7.40;4.97;;;;;;;21.26;62.70;100660.15;1809624;78;20995;-47
2022/07/23 04:54:32;;;;;;;6.58;4.80;;;;;;;21.27;62.54;100657.80;1809835;77;21046;-48
2022/07/23 04:57:00;;;;;;;7.12;4.92;;;;;;;21.26;62.50;100660.15;1812859;78;21010;-47
2022/07/23 04:59:27;;;;;;;7.62;4.83;;;;;;;21.28;62.82;100654.13;1809926;77;21053;-47
2022/07/23 05:01:56;;;;;;;8.13;4.30;;;;;;;21.34;62.53;100660.05;1814413;77;22140;-47
2022/07/23 05:04:24;;;;;;;6.75;4.17;;;;;;;21.41;61.67;100661.47;1812549;78;21014;-47
2022/07/23 05:06:52;;;;;;;6.20;4.65;;;;;;;21.47;61.82;100666.64;1800413;78;21041;-47
2022/07/23 05:09:21;;;;;;;7.05;4.28;;;;;;;21.51;61.49;100666.05;1801811;77;21062;-47
2022/07/23 05:11:48;;;;;;;6.10;4.15;;;;;;;21.54;61.26;100666.72;1807652;78;21053;-47
2022/07/23 05:14:15;;;;;;;5.33;4.20;;;;;;;21.58;61.15;100664.79;1803556;78;21121;-47
2022/07/23 05:16:43;;;;;;;6.20;4.53;;;;;;;21.62;60.92;100666.58;1821607;77;21073;-47
2022/07/23 05:19:12;;;;;;;6.45;4.20;;;;;;;21.67;60.51;100672.20;1804927;78;20983;-48
2022/07/23 05:21:39;;;;;;;6.55;3.70;;;;;;;21.69;60.29;100671.00;1819747;78;21088;-47
2022/07/23 05:24:06;;;;;;;6.03;4.42;;;;;;;21.74;60.03;100670.93;1806936;78;21065;-47
2022/07/23 05:26:33;;;;;;;5.65;4.20;;;;;;;21.79;60.08;100674.72;1794012;80;21049;-49
2022/07/23 05:28:59;;;;;;;5.47;3.85;;;;;;;21.86;59.95;100674.79;1813232;77;20994;-47
2022/07/23 05:31:26;;;;;;;7.15;4.08;;;;;;;21.91;59.84;100675.05;1822866;78;20995;-47
2022/07/23 05:33:53;;;;;;;9.10;3.85;;;;;;;21.96;59.81;100675.83;1819182;78;21058;-47
2022/07/23 05:36:20;;;;;;;6.67;3.77;;;;;;;21.98;59.65;100667.08;1826207;78;21494;-47
2022/07/23 05:38:54;;;;;;;5.17;3.60;;;;;;;22.05;59.77;100675.48;1807452;77;21987;-47
2022/07/23 05:41:21;;;;;;;5.25;3.10;;;;;;;22.12;59.25;100671.53;1825899;77;21034;-47
2022/07/23 05:43:48;;;;;;;5.17;3.50;;;;;;;22.24;59.16;100674.52;1823488;77;21659;-47
2022/07/23 05:46:14;;;;;;;5.25;3.72;;;;;;;22.33;58.19;100674.75;1830293;77;21527;-47
2022/07/23 05:48:42;;;;;;;7.30;3.47;;;;;;;22.41;58.68;100667.92;1748940;81;21058;-47
2022/07/23 05:51:11;;;;;;;5.20;3.17;;;;;;;22.48;58.36;100673.34;1751895;81;21331;-46
2022/07/23 05:53:38;;;;;;;5.78;3.72;;;;;;;22.52;57.82;100674.59;1755446;81;21058;-47
2022/07/23 05:56:12;;;;;;;6.37;3.80;;;;;;;22.57;57.64;100669.99;1788143;79;20975;-47
2022/07/23 05:58:39;;;;;;;5.75;3.10;;;;;;;22.59;57.07;100666.11;1766751;79;21046;-47
2022/07/23 06:01:06;;;;;;;6.08;4.60;;;;;;;22.63;57.21;100669.22;1782971;79;21064;-47
2022/07/23 06:03:34;;;;;;;5.72;3.65;;;;;;;22.64;57.73;100670.86;1761181;79;21326;-47
2022/07/23 06:06:01;;;;;;;5.30;2.85;;;;;;;22.73;57.38;100668.85;1751767;81;21031;-49
2022/07/23 06:08:29;;;;;;;5.08;3.52;;;;;;;22.82;57.07;100670.38;1751833;80;21061;-47
2022/07/23 06:10:57;;;;;;;5.92;3.77;;;;;;;22.94;57.18;100666.11;1781108;79;21064;-47
2022/07/23 06:13:23;;;;;;;5.35;3.12;;;;;;;23.04;56.75;100673.80;1759459;79;22400;-47
2022/07/23 06:15:50;;;;;;;5.60;3.25;;;;;;;23.13;56.16;100671.81;1764990;79;21738;-47
2022/07/23 06:18:18;;;;;;;5.42;3.55;;;;;;;23.20;55.65;100670.02;1763944;79;21113;-47
2022/07/23 06:20:45;;;;;;;5.35;3.42;;;;;;;23.26;55.82;100667.03;1768533;79;21050;-47
2022/07/23 06:23:12;;;;;;;4.83;3.40;;;;;;;23.32;55.54;100670.27;1776669;79;21034;-47
2022/07/23 06:25:39;;;;;;;4.12;2.65;;;;;;;23.34;54.97;100669.03;1741023;81;21063;-47
2022/07/23 06:28:05;;;;;;;4.58;2.35;;;;;;;23.37;54.59;100672.66;1762544;81;22299;-47
2022/07/23 06:30:34;;;;;;;4.80;2.42;;;;;;;23.40;53.64;100672.76;1756146;79;21101;-49
2022/07/23 06:33:00;;;;;;;4.22;2.47;;;;;;;23.44;54.24;100673.22;1758209;81;21018;-47
2022/07/23 06:35:29;;;;;;;5.47;2.67;;;;;;;23.48;53.98;100679.30;1753871;81;21030;-47
2022/07/23 06:40:02;;;;;;;5.03;2.33;;;;;;;23.67;51.43;100679.57;1792459;78;22424;-48
2022/07/23 06:42:29;;;;;;;7.30;4.87;;;;;;;23.72;50.45;100682.48;1770442;78;21041;-47
2022/07/23 06:44:58;;;;;;;4.92;2.25;;;;;;;23.74;50.82;100678.57;1771616;80;21144;-48
2022/07/23 06:47:24;;;;;;;4.50;2.25;;;;;;;23.78;50.08;100678.99;1767334;80;20931;-48
2022/07/23 06:49:51;;;;;;;5.22;2.50;;;;;;;23.78;49.86;100684.37;1779513;78;21050;-48
2022/07/23 06:52:18;;;;;;;4.72;2.15;;;;;;;23.78;50.00;100680.86;1760531;80;21079;-48
2022/07/23 06:54:44;;;;;;;6.22;2.47;;;;;;;23.80;49.50;100682.30;1769248;79;21082;-48
2022/07/23 06:57:11;;;;;;;5.30;2.58;;;;;;;23.84;49.61;100678.22;1783301;78;21133;-47
2022/07/23 06:59:40;;;;;;;4.10;2.47;;;;;;;23.86;49.40;100680.70;1767501;79;21562;-48
2022/07/23 07:02:07;;;;;;;6.53;2.80;;;;;;;23.90;49.95;100685.97;1772771;80;21097;-48
2022/07/23 07:04:34;;;;;;;4.08;2.40;;;;;;;23.96;50.64;100685.70;1770659;78;21073;-48
2022/07/23 07:07:01;;;;;;;5.50;2.87;;;;;;;24.00;49.78;100689.09;1778491;78;21046;-48
2022/07/23 07:09:27;;;;;;;4.30;2.47;;;;;;;24.05;50.08;100686.62;1776858;78;21961;-47
2022/07/23 07:11:54;;;;;;;6.12;2.60;;;;;;;24.09;49.25;100679.81;1748711;80;21335;-47
2022/07/23 07:14:21;;;;;;;4.50;1.92;;;;;;;24.13;49.33;100680.23;1765017;79;21049;-48
2022/07/23 07:16:48;;;;;;;4.60;2.25;;;;;;;24.16;49.24;100681.17;1738425;81;21066;-47
2022/07/23 07:19:16;;;;;;;3.77;2.00;;;;;;;24.22;48.77;100683.02;1714075;82;21382;-48
2022/07/23 07:21:42;;;;;;;4.58;1.90;;;;;;;24.26;48.77;100678.91;1711564;83;21335;-47
2022/07/23 07:24:09;;;;;;;4.58;2.00;;;;;;;24.32;49.22;100675.89;1715628;82;21357;-47
2022/07/23 07:26:35;;;;;;;4.47;2.45;;;;;;;24.36;48.43;100677.65;1714010;81;21054;-48
2022/07/23 07:29:02;;;;;;;7.40;5.45;;;;;;;24.40;48.60;100680.25;1714698;82;21596;-48
2022/07/23 07:31:29;;;;;;;4.15;2.20;;;;;;;24.46;48.99;100676.72;1704171;82;21149;-48
2022/07/23 07:33:56;;;;;;;8.15;3.37;;;;;;;24.50;47.68;100682.53;1713205;81;21095;-47
2022/07/23 07:36:23;;;;;;;5.08;2.58;;;;;;;24.54;48.18;100677.85;1731039;81;21138;-48
2022/07/23 07:38:49;;;;;;;6.22;4.10;;;;;;;24.58;47.37;100675.60;1739897;81;21032;-48
2022/07/23 07:41:16;;;;;;;4.22;2.40;;;;;;;24.60;46.95;100678.41;1708588;81;21048;-48
2022/07/23 07:43:43;;;;;;;17.55;12.98;;;;;;;24.65;47.25;100673.75;1703396;82;21126;-47
2022/07/23 07:46:09;;;;;;;6.92;2.70;;;;;;;24.71;47.22;100670.20;1766752;79;21777;-48
2022/07/23 07:48:37;;;;;;;4.72;2.20;;;;;;;24.79;48.21;100671.34;1768376;80;21055;-47
2022/07/23 07:51:04;;;;;;;5.35;2.65;;;;;;;24.86;47.08;100668.63;1754583;80;21557;-48
2022/07/23 07:53:31;;;;;;;4.70;2.40;;;;;;;24.91;47.16;100674.21;1755213;79;21637;-48
2022/07/23 07:55:57;;;;;;;5.50;2.27;;;;;;;24.96;47.27;100669.02;1753978;80;21077;-48
2022/07/23 07:58:23;;;;;;;5.00;2.58;;;;;;;25.02;47.44;100670.87;1754940;80;21182;-50
2022/07/23 08:00:51;;;;;;;5.33;2.55;;;;;;;25.08;47.37;100671.88;1745459;79;21062;-48
2022/07/23 08:03:18;;;;;;;5.00;2.30;;;;;;;25.11;45.56;100670.12;1754747;80;21052;-48
2022/07/23 08:05:45;;;;;;;4.60;2.87;;;;;;;25.13;45.48;100676.64;1760960;80;21078;-48
2022/07/23 08:08:14;;;;;;;7.78;2.50;;;;;;;25.13;46.38;100675.30;1732161;81;21530;-48
2022/07/23 08:10:40;;;;;;;3.62;2.05;;;;;;;25.14;45.73;100671.05;1761735;79;21133;-48
2022/07/23 08:13:07;;;;;;;4.92;2.62;;;;;;;25.15;45.76;100675.41;1759044;80;21121;-47
2022/07/23 08:15:33;;;;;;;5.15;2.10;;;;;;;25.18;45.72;100671.45;1750923;79;21035;-49
2022/07/23 08:18:00;;;;;;;4.65;2.40;;;;;;;25.19;45.31;100678.50;1747542;80;21046;-48
2022/07/23 08:20:27;;;;;;;4.97;2.37;;;;;;;25.21;45.55;100675.88;1756455;80;21133;-48
2022/07/23 08:22:58;;;;;;;6.85;2.30;;;;;;;25.27;45.19;100676.10;1751575;79;21123;-48
2022/07/23 08:25:28;;;;;;;7.37;2.12;;;;;;;25.30;45.90;100675.68;1760403;79;21075;-48
2022/07/23 08:27:54;;;;;;;4.72;2.17;;;;;;;25.35;46.12;100680.75;1758144;80;21598;-48
2022/07/23 08:30:21;;;;;;;4.65;2.37;;;;;;;25.44;46.43;100679.17;1759578;79;21625;-48
2022/07/23 08:32:56;;;;;;;5.40;2.42;;;;;;;25.51;45.55;100675.39;1759628;79;21393;-50
2022/07/23 08:35:27;;;;;;;4.20;2.40;;;;;;;25.57;45.62;100670.50;1760608;80;21098;-48
2022/07/23 08:37:54;;;;;;;4.42;2.40;;;;;;;25.65;45.71;100666.70;1757941;79;21044;-49
2022/07/23 08:40:21;;;;;;;4.03;2.33;;;;;;;25.68;44.48;100673.02;1766627;78;21049;-48
2022/07/23 08:42:49;;;;;;;5.65;2.30;;;;;;;25.71;44.63;100669.89;1766607;80;21109;-48
2022/07/23 08:45:23;;;;;;;5.92;2.22;;;;;;;25.73;45.02;100675.89;1773721;79;21109;-48
2022/07/23 08:47:51;;;;;;;4.65;2.40;;;;;;;25.77;45.26;100677.13;1769031;80;21106;-49
2022/07/23 08:50:18;;;;;;;4.17;2.17;;;;;;;25.80;44.59;100666.42;1773058;79;21437;-48
2022/07/23 08:52:45;;;;;;;5.45;2.27;;;;;;;25.83;43.99;100675.42;1770096;78;21521;-48
2022/07/23 08:55:13;;;;;;;4.25;2.40;;;;;;;25.85;44.71;100676.56;1770484;80;21117;-48
2022/07/23 08:57:40;;;;;;;5.08;2.58;;;;;;;25.86;44.57;100668.26;1763619;79;21057;-48
2022/07/23 09:00:09;;;;;;;3.70;2.02;;;;;;;25.89;44.54;100661.59;1769366;80;21133;-48
2022/07/23 09:02:41;;;;;;;8.63;4.42;;;;;;;25.94;44.23;100665.30;1754660;81;21067;-48
2022/07/23 09:05:10;;;;;;;7.03;3.92;;;;;;;25.97;44.59;100665.94;1770339;78;21074;-48
2022/07/23 09:07:41;;;;;;;5.95;2.37;;;;;;;26.00;45.50;100669.02;1775088;80;21070;-48
2022/07/23 09:10:12;;;;;;;4.70;2.12;;;;;;;26.06;43.85;100661.95;1735748;80;21087;-48
2022/07/23 09:12:39;;;;;;;4.60;2.62;;;;;;;26.10;43.60;100654.53;1772317;80;21104;-48
2022/07/23 09:15:08;;;;;;;3.27;1.87;;;;;;;26.18;44.00;100652.62;1766883;79;21413;-49
2022/07/23 09:17:41;;;;;;;4.25;2.10;;;;;;;26.28;43.96;100657.00;1769577;78;21102;-49
2022/07/23 09:20:14;;;;;;;5.03;2.40;;;;;;;26.40;42.72;100658.45;1769345;79;21085;-48
2022/07/23 09:22:46;;;;;;;4.35;2.30;;;;;;;26.48;42.49;100648.73;1764770;80;21058;-48
2022/07/23 09:25:15;;;;;;;4.50;2.08;;;;;;;26.51;41.92;100656.36;1764962;80;21117;-48
2022/07/23 09:27:59;;;;;;;6.37;2.00;;;;;;;26.53;43.05;100646.70;1776228;78;21953;-49
2022/07/23 09:30:28;;;;;;;4.25;2.08;;;;;;;26.58;41.65;100646.86;1768668;79;21576;-49
2022/07/23 09:33:11;;;;;;;4.75;2.55;;;;;;;26.62;42.42;100643.50;1766572;78;21042;-48
2022/07/23 09:35:53;;;;;;;3.80;2.05;;;;;;;26.68;41.96;100641.30;1771574;80;21599;-47
2022/07/23 09:38:23;;;;;;;5.45;2.20;;;;;;;26.69;41.44;100638.06;1771032;80;21146;-50
2022/07/23 09:41:09;;;;;;;4.90;2.37;;;;;;;26.71;41.94;100646.76;1745817;80;21130;-49
2022/07/23 09:43:35;;;;;;;;;;;;;;;26.77;42.26;100652.62;1731916;80;21161;-49
2022/07/23 09:46:27;;;;;;;6.20;2.62;;;;;;;26.85;43.20;100645.58;1739221;80;20217;-48
2022/07/23 09:48:56;;;;;;;4.47;2.30;;;;;;;26.93;43.38;100646.33;1721840;80;21133;-48
2022/07/23 09:51:57;;;;;;;4.40;2.40;;;;;;;27.05;42.91;100641.31;1730490;80;22025;-48
2022/07/23 09:53:57;;;;;;;7.10;2.40;;;;;;;27.17;43.06;100644.08;1721541;80;21538;-49
2022/07/23 09:56:24;;;;;;;5.55;2.60;;;;;;;27.28;42.92;100637.61;1743624;80;21053;-49
2022/07/23 10:01:35;;;;;;;6.87;2.45;;;;;;;27.36;42.20;100648.14;1739896;80;21067;-49
2022/07/23 10:04:03;;;;;;;4.42;2.45;;;;;;;27.39;41.89;100647.16;1757489;80;21138;-49
2022/07/23 10:06:48;;;;;;;5.08;2.75;;;;;;;27.45;41.23;100647.30;1748944;80;21106;-49
2022/07/23 10:09:36;;;;;;;4.30;2.37;;;;;;;27.51;41.20;100640.98;1743279;80;21063;-49
2022/07/23 10:14:50;;;;;;;4.97;2.35;;;;;;;27.58;40.80;100638.47;1734327;80;21107;-48
2022/07/23 10:17:17;;;;;;;5.10;2.62;;;;;;;27.65;41.28;100640.27;1737335;80;21222;-48
2022/07/23 10:19:44;;;;;;;4.58;2.47;;;;;;;27.71;41.24;100640.70;1730866;80;20993;-48
2022/07/23 10:22:14;;;;;;;4.08;2.60;;;;;;;27.75;40.50;100640.53;1741507;80;21137;-48
2022/07/23 10:25:14;;;;;;;3.65;1.90;;;;;;;27.78;40.67;100642.77;1742771;80;21529;-48
2022/07/23 10:28:07;;;;;;;5.22;2.30;;;;;;;27.79;41.33;100634.44;1730253;82;21062;-49
2022/07/23 10:30:43;;;;;;;4.30;2.20;;;;;;;27.79;39.82;100627.67;1733942;80;21850;-49
2022/07/23 10:33:51;;;;;;;5.15;2.22;;;;;;;27.76;40.19;100628.13;1737214;80;21141;-49
2022/07/23 10:37:02;;;;;;;4.20;2.30;;;;;;;27.75;39.78;100626.47;1748432;80;21058;-49
2022/07/23 10:39:32;;;;;;;5.15;2.40;;;;;;;27.71;40.80;100629.35;1755579;80;21134;-47
2022/07/23 10:42:14;;;;;;;4.62;2.55;;;;;;;27.72;41.98;100624.25;1760869;80;21063;-48
2022/07/23 10:44:47;;;;;;;3.60;1.90;;;;;;;27.76;41.21;100621.91;1753632;79;21817;-48
2022/07/23 10:50:27;;;;;;;;;;;;;;;27.88;41.68;100614.64;1756338;79;21994;-47
2022/07/23 10:53:15;;;;;;;3.60;2.08;;;;;;;27.98;40.68;100610.86;1753541;80;20216;-48
2022/07/23 10:55:48;;;;;;;3.92;2.35;;;;;;;28.04;39.95;100615.05;1759492;79;21050;-47
2022/07/23 10:58:22;;;;;;;3.85;2.25;;;;;;;28.07;42.01;100617.29;1752363;79;21136;-48
2022/07/23 11:00:49;;;;;;;4.92;2.27;;;;;;;28.07;39.96;100611.88;1762567;79;20996;-48
2022/07/23 11:03:37;;;;;;;4.35;2.22;;;;;;;28.08;40.44;100609.48;1721434;82;21543;-48
2022/07/23 11:06:03;;;;;;;3.67;2.08;;;;;;;28.16;40.15;100607.78;1717691;81;21068;-51
2022/07/23 11:08:31;;;;;;;4.83;2.35;;;;;;;28.29;40.42;100606.17;1752748;80;21058;-49
2022/07/23 11:11:09;;;;;;;4.60;2.75;;;;;;;28.37;39.29;100602.84;1758275;80;21506;-48
2022/07/23 11:13:39;;;;;;;4.40;2.37;;;;;;;28.42;39.99;100615.14;1762316;79;21004;-48
2022/07/23 11:16:19;;;;;;;4.33;2.20;;;;;;;28.48;39.69;100603.34;1760064;80;21031;-49
2022/07/23 11:18:54;;;;;;;4.95;2.42;;;;;;;28.54;39.80;100599.70;1752787;80;21094;-49
2022/07/23 11:21:31;;;;;;;3.72;1.85;;;;;;;28.67;40.59;100595.42;1760580;79;21027;-48
2022/07/23 11:24:06;;;;;;;4.55;2.02;;;;;;;28.82;40.22;100594.12;1755206;79;21075;-48
2022/07/23 11:26:49;;;;;;;5.05;2.00;;;;;;;28.97;40.14;100599.03;1733755;80;21055;-49
2022/07/23 11:29:40;;;;;;;3.72;1.92;;;;;;;29.07;39.68;100591.91;1753012;80;22341;-48
2022/07/23 11:32:25;;;;;;;4.15;2.30;;;;;;;29.12;38.79;100598.48;1758863;79;21510;-48
2022/07/23 11:34:53;;;;;;;3.62;1.90;;;;;;;29.19;38.90;100594.61;1772067;79;21090;-49
2022/07/23 11:37:39;;;;;;;6.92;2.50;;;;;;;29.22;38.05;100598.20;1764987;80;21063;-48
2022/07/23 11:40:11;;;;;;;3.83;2.00;;;;;;;29.27;37.62;100594.77;1760458;79;21007;-48
2022/07/23 11:42:39;;;;;;;3.58;1.90;;;;;;;29.29;36.92;100595.34;1753697;80;21054;-48
2022/07/23 11:45:08;;;;;;;5.12;2.08;;;;;;;29.31;36.68;100585.08;1766309;79;21047;-48
2022/07/23 11:47:35;;;;;;;3.72;1.77;;;;;;;29.38;36.66;100575.45;1761053;79;21055;-49